sensor_id;sensor_type;location;lat;lon;timestamp;P1;durP1;ratioP1;P2;durP2;ratioP2
6037;SDS011;3047;42.600;23.470;2022-12-07T00:01:49;7.50;;;1.43;;
6037;SDS011;3047;42.600;23.470;2022-12-07T00:04:16;0.97;;;0.97;;
6037;SDS011;3047;42.600;23.470;2022-12-07T00:06:44;3.50;;;1.10;;
6037;SDS011;3047;42.600;23.470;2022-12-07T00:09:12;1.73;;;1.63;;
6037;SDS011;3047;42.600;23.470;2022-12-07T00:11:42;1.43;;;1.17;;
6037;SDS011;3047;42.600;23.470;2022-12-07T00:14:10;1.00;;;1.00;;
6037;SDS011;3047;42.600;23.470;2022-12-07T00:16:38;1.47;;;1.37;;
6037;SDS011;3047;42.600;23.470;2022-12-07T00:19:06;1.80;;;1.70;;
6037;SDS011;3047;42.600;23.470;2022-12-07T00:21:33;3.07;;;1.07;;
6037;SDS011;3047;42.600;23.470;2022-12-07T00:24:01;0.73;;;0.73;;
6037;SDS011;3047;42.600;23.470;2022-12-07T00:26:30;1.63;;;1.53;;
6037;SDS011;3047;42.600;23.470;2022-12-07T00:29:00;2.73;;;2.03;;
6037;SDS011;3047;42.600;23.470;2022-12-07T00:31:29;1.07;;;1.07;;
6037;SDS011;3047;42.600;23.470;2022-12-07T00:33:58;1.43;;;1.33;;
6037;SDS011;3047;42.600;23.470;2022-12-07T00:36:25;1.17;;;1.17;;
6037;SDS011;3047;42.600;23.470;2022-12-07T00:38:52;0.60;;;0.60;;
6037;SDS011;3047;42.600;23.470;2022-12-07T00:41:20;1.47;;;1.37;;
6037;SDS011;3047;42.600;23.470;2022-12-07T00:43:48;0.70;;;0.70;;
6037;SDS011;3047;42.600;23.470;2022-12-07T00:46:17;1.33;;;1.33;;
6037;SDS011;3047;42.600;23.470;2022-12-07T00:48:45;0.83;;;0.83;;
6037;SDS011;3047;42.600;23.470;2022-12-07T00:51:13;0.63;;;0.63;;
6037;SDS011;3047;42.600;23.470;2022-12-07T00:53:42;2.23;;;1.50;;
6037;SDS011;3047;42.600;23.470;2022-12-07T00:56:10;0.90;;;0.90;;
6037;SDS011;3047;42.600;23.470;2022-12-07T00:58:38;0.87;;;0.87;;
6037;SDS011;3047;42.600;23.470;2022-12-07T01:01:05;0.60;;;0.60;;
6037;SDS011;3047;42.600;23.470;2022-12-07T01:03:34;1.97;;;1.47;;
6037;SDS011;3047;42.600;23.470;2022-12-07T01:06:02;2.93;;;1.93;;
6037;SDS011;3047;42.600;23.470;2022-12-07T01:08:29;1.20;;;1.20;;
6037;SDS011;3047;42.600;23.470;2022-12-07T01:10:59;1.13;;;0.90;;
6037;SDS011;3047;42.600;23.470;2022-12-07T01:13:26;1.40;;;1.40;;
6037;SDS011;3047;42.600;23.470;2022-12-07T01:15:56;0.70;;;0.70;;
6037;SDS011;3047;42.600;23.470;2022-12-07T01:18:24;0.87;;;0.87;;
6037;SDS011;3047;42.600;23.470;2022-12-07T01:20:58;0.73;;;0.73;;
6037;SDS011;3047;42.600;23.470;2022-12-07T01:23:26;0.90;;;0.90;;
6037;SDS011;3047;42.600;23.470;2022-12-07T01:25:55;3.30;;;2.23;;
6037;SDS011;3047;42.600;23.470;2022-12-07T01:28:23;1.23;;;1.23;;
6037;SDS011;3047;42.600;23.470;2022-12-07T01:30:57;0.53;;;0.53;;
6037;SDS011;3047;42.600;23.470;2022-12-07T01:33:26;0.67;;;0.67;;
6037;SDS011;3047;42.600;23.470;2022-12-07T01:35:54;0.57;;;0.57;;
6037;SDS011;3047;42.600;23.470;2022-12-07T01:38:27;0.87;;;0.87;;
6037;SDS011;3047;42.600;23.470;2022-12-07T01:40:54;0.70;;;0.70;;
6037;SDS011;3047;42.600;23.470;2022-12-07T01:43:22;1.03;;;1.03;;
6037;SDS011;3047;42.600;23.470;2022-12-07T01:45:51;1.53;;;1.53;;
6037;SDS011;3047;42.600;23.470;2022-12-07T01:48:19;1.70;;;1.60;;
6037;SDS011;3047;42.600;23.470;2022-12-07T01:50:50;1.80;;;1.27;;
6037;SDS011;3047;42.600;23.470;2022-12-07T01:53:19;0.77;;;0.77;;
6037;SDS011;3047;42.600;23.470;2022-12-07T01:55:52;0.83;;;0.83;;
6037;SDS011;3047;42.600;23.470;2022-12-07T01:58:20;14.43;;;1.87;;
6037;SDS011;3047;42.600;23.470;2022-12-07T02:00:47;1.10;;;1.07;;
6037;SDS011;3047;42.600;23.470;2022-12-07T02:03:16;1.00;;;1.00;;
6037;SDS011;3047;42.600;23.470;2022-12-07T02:05:46;0.93;;;0.93;;
6037;SDS011;3047;42.600;23.470;2022-12-07T02:08:14;1.37;;;1.37;;
6037;SDS011;3047;42.600;23.470;2022-12-07T02:10:41;0.73;;;0.73;;
6037;SDS011;3047;42.600;23.470;2022-12-07T02:13:10;3.50;;;0.80;;
6037;SDS011;3047;42.600;23.470;2022-12-07T02:15:43;0.80;;;0.80;;
6037;SDS011;3047;42.600;23.470;2022-12-07T02:18:19;0.57;;;0.57;;
6037;SDS011;3047;42.600;23.470;2022-12-07T02:20:57;1.10;;;1.10;;
6037;SDS011;3047;42.600;23.470;2022-12-07T02:26:39;1.00;;;1.00;;
6037;SDS011;3047;42.600;23.470;2022-12-07T02:29:32;1.63;;;1.63;;
6037;SDS011;3047;42.600;23.470;2022-12-07T02:32:06;0.70;;;0.70;;
6037;SDS011;3047;42.600;23.470;2022-12-07T02:34:41;0.63;;;0.63;;
6037;SDS011;3047;42.600;23.470;2022-12-07T02:37:18;0.63;;;0.63;;
6037;SDS011;3047;42.600;23.470;2022-12-07T02:39:54;0.60;;;0.60;;
6037;SDS011;3047;42.600;23.470;2022-12-07T02:42:27;2.63;;;1.57;;
6037;SDS011;3047;42.600;23.470;2022-12-07T02:45:01;1.40;;;1.40;;
6037;SDS011;3047;42.600;23.470;2022-12-07T02:47:30;0.47;;;0.47;;
6037;SDS011;3047;42.600;23.470;2022-12-07T02:50:00;0.93;;;0.93;;
6037;SDS011;3047;42.600;23.470;2022-12-07T02:52:29;1.43;;;1.43;;
6037;SDS011;3047;42.600;23.470;2022-12-07T02:54:56;1.70;;;1.60;;
6037;SDS011;3047;42.600;23.470;2022-12-07T02:57:27;0.60;;;0.60;;
6037;SDS011;3047;42.600;23.470;2022-12-07T03:00:08;0.73;;;0.73;;
6037;SDS011;3047;42.600;23.470;2022-12-07T03:02:42;0.87;;;0.87;;
6037;SDS011;3047;42.600;23.470;2022-12-07T03:05:25;0.57;;;0.57;;
6037;SDS011;3047;42.600;23.470;2022-12-07T03:08:11;1.50;;;1.40;;
6037;SDS011;3047;42.600;23.470;2022-12-07T03:10:48;1.53;;;1.30;;
6037;SDS011;3047;42.600;23.470;2022-12-07T03:13:22;1.10;;;1.10;;
6037;SDS011;3047;42.600;23.470;2022-12-07T03:15:54;0.93;;;0.93;;
6037;SDS011;3047;42.600;23.470;2022-12-07T03:18:25;1.70;;;1.27;;
6037;SDS011;3047;42.600;23.470;2022-12-07T03:20:57;0.83;;;0.83;;
6037;SDS011;3047;42.600;23.470;2022-12-07T03:23:28;1.23;;;0.90;;
6037;SDS011;3047;42.600;23.470;2022-12-07T03:25:59;1.47;;;1.47;;
6037;SDS011;3047;42.600;23.470;2022-12-07T03:28:28;2.13;;;2.00;;
6037;SDS011;3047;42.600;23.470;2022-12-07T03:31:01;1.43;;;1.43;;
6037;SDS011;3047;42.600;23.470;2022-12-07T03:33:39;2.00;;;0.77;;
6037;SDS011;3047;42.600;23.470;2022-12-07T03:36:11;0.80;;;0.80;;
6037;SDS011;3047;42.600;23.470;2022-12-07T03:38:47;1.03;;;1.00;;
6037;SDS011;3047;42.600;23.470;2022-12-07T03:41:18;0.77;;;0.77;;
6037;SDS011;3047;42.600;23.470;2022-12-07T03:43:48;0.87;;;0.87;;
6037;SDS011;3047;42.600;23.470;2022-12-07T03:46:19;7.40;;;1.37;;
6037;SDS011;3047;42.600;23.470;2022-12-07T03:48:54;0.70;;;0.70;;
6037;SDS011;3047;42.600;23.470;2022-12-07T03:51:26;1.03;;;1.03;;
6037;SDS011;3047;42.600;23.470;2022-12-07T03:53:59;1.70;;;1.70;;
6037;SDS011;3047;42.600;23.470;2022-12-07T03:56:31;0.77;;;0.77;;
6037;SDS011;3047;42.600;23.470;2022-12-07T03:58:59;1.57;;;1.47;;
6037;SDS011;3047;42.600;23.470;2022-12-07T04:01:27;1.30;;;1.30;;
6037;SDS011;3047;42.600;23.470;2022-12-07T04:03:54;2.63;;;2.07;;
6037;SDS011;3047;42.600;23.470;2022-12-07T04:06:21;1.87;;;1.73;;
6037;SDS011;3047;42.600;23.470;2022-12-07T04:08:48;2.37;;;1.73;;
6037;SDS011;3047;42.600;23.470;2022-12-07T04:11:14;3.23;;;1.43;;
6037;SDS011;3047;42.600;23.470;2022-12-07T04:13:41;3.30;;;1.77;;
6037;SDS011;3047;42.600;23.470;2022-12-07T04:16:25;3.10;;;1.73;;
6037;SDS011;3047;42.600;23.470;2022-12-07T04:18:54;1.47;;;1.37;;
6037;SDS011;3047;42.600;23.470;2022-12-07T04:21:20;2.30;;;1.50;;
6037;SDS011;3047;42.600;23.470;2022-12-07T04:23:47;1.87;;;1.07;;
6037;SDS011;3047;42.600;23.470;2022-12-07T04:26:14;0.73;;;0.73;;
6037;SDS011;3047;42.600;23.470;2022-12-07T04:28:40;0.53;;;0.53;;
6037;SDS011;3047;42.600;23.470;2022-12-07T04:31:07;1.10;;;1.10;;
6037;SDS011;3047;42.600;23.470;2022-12-07T04:33:36;1.70;;;1.60;;
6037;SDS011;3047;42.600;23.470;2022-12-07T04:36:03;0.90;;;0.90;;
6037;SDS011;3047;42.600;23.470;2022-12-07T04:38:30;0.97;;;0.97;;
6037;SDS011;3047;42.600;23.470;2022-12-07T04:40:57;0.87;;;0.87;;
6037;SDS011;3047;42.600;23.470;2022-12-07T04:43:23;1.50;;;1.40;;
6037;SDS011;3047;42.600;23.470;2022-12-07T04:45:50;0.83;;;0.83;;
6037;SDS011;3047;42.600;23.470;2022-12-07T04:48:17;2.13;;;1.47;;
6037;SDS011;3047;42.600;23.470;2022-12-07T04:50:47;2.10;;;1.50;;
6037;SDS011;3047;42.600;23.470;2022-12-07T04:53:14;0.73;;;0.73;;
6037;SDS011;3047;42.600;23.470;2022-12-07T04:55:41;0.90;;;0.90;;
6037;SDS011;3047;42.600;23.470;2022-12-07T04:58:08;0.73;;;0.73;;
6037;SDS011;3047;42.600;23.470;2022-12-07T05:00:34;1.47;;;1.47;;
6037;SDS011;3047;42.600;23.470;2022-12-07T05:03:01;0.87;;;0.87;;
6037;SDS011;3047;42.600;23.470;2022-12-07T05:05:28;0.80;;;0.80;;
6037;SDS011;3047;42.600;23.470;2022-12-07T05:07:56;0.87;;;0.87;;
6037;SDS011;3047;42.600;23.470;2022-12-07T05:10:23;0.80;;;0.80;;
6037;SDS011;3047;42.600;23.470;2022-12-07T05:12:50;0.83;;;0.83;;
6037;SDS011;3047;42.600;23.470;2022-12-07T05:15:17;1.20;;;1.20;;
6037;SDS011;3047;42.600;23.470;2022-12-07T05:17:44;1.07;;;1.07;;
6037;SDS011;3047;42.600;23.470;2022-12-07T05:20:11;1.00;;;1.00;;
6037;SDS011;3047;42.600;23.470;2022-12-07T05:22:38;0.83;;;0.83;;
6037;SDS011;3047;42.600;23.470;2022-12-07T05:25:06;1.27;;;1.27;;
6037;SDS011;3047;42.600;23.470;2022-12-07T05:27:34;1.17;;;1.17;;
6037;SDS011;3047;42.600;23.470;2022-12-07T05:30:00;0.63;;;0.63;;
6037;SDS011;3047;42.600;23.470;2022-12-07T05:32:27;0.80;;;0.80;;
6037;SDS011;3047;42.600;23.470;2022-12-07T05:34:54;1.80;;;1.10;;
6037;SDS011;3047;42.600;23.470;2022-12-07T05:37:21;1.20;;;1.07;;
6037;SDS011;3047;42.600;23.470;2022-12-07T05:39:47;2.30;;;1.10;;
6037;SDS011;3047;42.600;23.470;2022-12-07T05:42:15;1.10;;;1.10;;
6037;SDS011;3047;42.600;23.470;2022-12-07T05:44:43;1.37;;;1.30;;
6037;SDS011;3047;42.600;23.470;2022-12-07T05:47:11;1.27;;;1.27;;
6037;SDS011;3047;42.600;23.470;2022-12-07T05:49:38;1.23;;;1.13;;
6037;SDS011;3047;42.600;23.470;2022-12-07T05:52:05;0.57;;;0.57;;
6037;SDS011;3047;42.600;23.470;2022-12-07T05:54:32;0.90;;;0.90;;
6037;SDS011;3047;42.600;23.470;2022-12-07T05:56:59;0.87;;;0.87;;
6037;SDS011;3047;42.600;23.470;2022-12-07T05:59:27;0.93;;;0.93;;
6037;SDS011;3047;42.600;23.470;2022-12-07T06:01:54;2.80;;;1.17;;
6037;SDS011;3047;42.600;23.470;2022-12-07T06:04:23;1.20;;;1.20;;
6037;SDS011;3047;42.600;23.470;2022-12-07T06:06:51;0.90;;;0.90;;
6037;SDS011;3047;42.600;23.470;2022-12-07T06:09:19;0.90;;;0.90;;
6037;SDS011;3047;42.600;23.470;2022-12-07T06:11:46;3.20;;;1.47;;
6037;SDS011;3047;42.600;23.470;2022-12-07T06:14:41;1.27;;;1.17;;
6037;SDS011;3047;42.600;23.470;2022-12-07T06:17:08;0.87;;;0.87;;
6037;SDS011;3047;42.600;23.470;2022-12-07T06:19:35;0.97;;;0.97;;
6037;SDS011;3047;42.600;23.470;2022-12-07T06:22:02;1.87;;;1.77;;
6037;SDS011;3047;42.600;23.470;2022-12-07T06:24:30;2.20;;;2.10;;
6037;SDS011;3047;42.600;23.470;2022-12-07T06:26:57;0.93;;;0.93;;
6037;SDS011;3047;42.600;23.470;2022-12-07T06:29:24;0.83;;;0.83;;
6037;SDS011;3047;42.600;23.470;2022-12-07T06:31:53;1.03;;;1.03;;
6037;SDS011;3047;42.600;23.470;2022-12-07T06:34:20;1.03;;;1.03;;
6037;SDS011;3047;42.600;23.470;2022-12-07T06:36:48;1.27;;;1.27;;
6037;SDS011;3047;42.600;23.470;2022-12-07T06:39:16;2.03;;;1.83;;
6037;SDS011;3047;42.600;23.470;2022-12-07T06:41:43;0.80;;;0.80;;
6037;SDS011;3047;42.600;23.470;2022-12-07T06:44:11;3.13;;;1.33;;
6037;SDS011;3047;42.600;23.470;2022-12-07T06:46:37;0.73;;;0.73;;
6037;SDS011;3047;42.600;23.470;2022-12-07T06:49:06;2.53;;;2.43;;
6037;SDS011;3047;42.600;23.470;2022-12-07T06:51:33;4.43;;;1.30;;
6037;SDS011;3047;42.600;23.470;2022-12-07T06:54:01;3.60;;;1.90;;
6037;SDS011;3047;42.600;23.470;2022-12-07T06:56:28;1.10;;;1.10;;
6037;SDS011;3047;42.600;23.470;2022-12-07T06:58:55;1.37;;;1.37;;
6037;SDS011;3047;42.600;23.470;2022-12-07T07:01:22;0.87;;;0.87;;
6037;SDS011;3047;42.600;23.470;2022-12-07T07:03:49;1.57;;;1.40;;
6037;SDS011;3047;42.600;23.470;2022-12-07T07:06:17;0.83;;;0.83;;
6037;SDS011;3047;42.600;23.470;2022-12-07T07:08:44;6.13;;;2.70;;
6037;SDS011;3047;42.600;23.470;2022-12-07T07:11:11;3.03;;;2.83;;
6037;SDS011;3047;42.600;23.470;2022-12-07T07:13:37;2.20;;;1.77;;
6037;SDS011;3047;42.600;23.470;2022-12-07T07:16:05;2.67;;;2.57;;
6037;SDS011;3047;42.600;23.470;2022-12-07T07:18:36;3.07;;;2.67;;
6037;SDS011;3047;42.600;23.470;2022-12-07T07:21:03;2.00;;;1.90;;
6037;SDS011;3047;42.600;23.470;2022-12-07T07:23:32;2.27;;;2.17;;
6037;SDS011;3047;42.600;23.470;2022-12-07T07:25:59;2.67;;;2.47;;
6037;SDS011;3047;42.600;23.470;2022-12-07T07:28:26;7.83;;;2.73;;
6037;SDS011;3047;42.600;23.470;2022-12-07T07:30:52;7.87;;;4.07;;
6037;SDS011;3047;42.600;23.470;2022-12-07T07:33:19;3.13;;;2.00;;
6037;SDS011;3047;42.600;23.470;2022-12-07T07:35:46;2.67;;;2.57;;
6037;SDS011;3047;42.600;23.470;2022-12-07T07:38:13;3.67;;;2.17;;
6037;SDS011;3047;42.600;23.470;2022-12-07T07:40:41;3.43;;;3.13;;
6037;SDS011;3047;42.600;23.470;2022-12-07T07:43:08;3.17;;;2.00;;
6037;SDS011;3047;42.600;23.470;2022-12-07T07:45:34;4.93;;;3.70;;
6037;SDS011;3047;42.600;23.470;2022-12-07T07:48:02;4.10;;;2.07;;
6037;SDS011;3047;42.600;23.470;2022-12-07T07:50:29;9.43;;;3.23;;
6037;SDS011;3047;42.600;23.470;2022-12-07T07:52:56;1.80;;;1.07;;
6037;SDS011;3047;42.600;23.470;2022-12-07T07:55:23;3.00;;;1.97;;
6037;SDS011;3047;42.600;23.470;2022-12-07T07:57:51;2.20;;;1.47;;
6037;SDS011;3047;42.600;23.470;2022-12-07T08:00:18;2.77;;;2.07;;
6037;SDS011;3047;42.600;23.470;2022-12-07T08:02:45;2.90;;;1.77;;
6037;SDS011;3047;42.600;23.470;2022-12-07T08:05:12;2.67;;;2.03;;
6037;SDS011;3047;42.600;23.470;2022-12-07T08:07:40;2.43;;;1.97;;
6037;SDS011;3047;42.600;23.470;2022-12-07T08:10:07;1.47;;;1.47;;
6037;SDS011;3047;42.600;23.470;2022-12-07T08:12:37;3.40;;;2.63;;
6037;SDS011;3047;42.600;23.470;2022-12-07T08:15:26;19.37;;;2.63;;
6037;SDS011;3047;42.600;23.470;2022-12-07T08:17:54;3.50;;;1.67;;
6037;SDS011;3047;42.600;23.470;2022-12-07T08:20:21;2.80;;;2.57;;
6037;SDS011;3047;42.600;23.470;2022-12-07T08:22:48;2.87;;;2.67;;
6037;SDS011;3047;42.600;23.470;2022-12-07T08:25:15;4.30;;;4.00;;
6037;SDS011;3047;42.600;23.470;2022-12-07T08:27:42;2.83;;;2.63;;
6037;SDS011;3047;42.600;23.470;2022-12-07T08:30:09;2.70;;;1.73;;
6037;SDS011;3047;42.600;23.470;2022-12-07T08:32:38;7.77;;;1.97;;
6037;SDS011;3047;42.600;23.470;2022-12-07T08:35:05;10.27;;;2.00;;
6037;SDS011;3047;42.600;23.470;2022-12-07T08:37:33;2.93;;;2.73;;
6037;SDS011;3047;42.600;23.470;2022-12-07T08:39:59;3.33;;;2.23;;
6037;SDS011;3047;42.600;23.470;2022-12-07T08:42:26;1.70;;;1.47;;
6037;SDS011;3047;42.600;23.470;2022-12-07T08:44:55;6.97;;;2.67;;
6037;SDS011;3047;42.600;23.470;2022-12-07T08:47:22;2.63;;;2.00;;
6037;SDS011;3047;42.600;23.470;2022-12-07T08:49:52;1.67;;;1.60;;
6037;SDS011;3047;42.600;23.470;2022-12-07T08:52:20;15.87;;;4.17;;
6037;SDS011;3047;42.600;23.470;2022-12-07T08:54:47;4.43;;;3.10;;
6037;SDS011;3047;42.600;23.470;2022-12-07T08:57:15;3.33;;;3.13;;
6037;SDS011;3047;42.600;23.470;2022-12-07T08:59:41;2.37;;;2.27;;
6037;SDS011;3047;42.600;23.470;2022-12-07T09:02:08;5.63;;;2.50;;
6037;SDS011;3047;42.600;23.470;2022-12-07T09:04:35;3.60;;;2.70;;
6037;SDS011;3047;42.600;23.470;2022-12-07T09:07:03;3.13;;;1.77;;
6037;SDS011;3047;42.600;23.470;2022-12-07T09:09:31;2.30;;;2.20;;
6037;SDS011;3047;42.600;23.470;2022-12-07T09:11:57;2.73;;;2.63;;
6037;SDS011;3047;42.600;23.470;2022-12-07T09:14:24;3.10;;;2.90;;
6037;SDS011;3047;42.600;23.470;2022-12-07T09:16:51;5.60;;;2.37;;
6037;SDS011;3047;42.600;23.470;2022-12-07T09:19:18;6.70;;;1.63;;
6037;SDS011;3047;42.600;23.470;2022-12-07T09:21:44;2.77;;;2.03;;
6037;SDS011;3047;42.600;23.470;2022-12-07T09:24:13;2.37;;;2.17;;
6037;SDS011;3047;42.600;23.470;2022-12-07T09:26:39;1.83;;;1.83;;
6037;SDS011;3047;42.600;23.470;2022-12-07T09:29:06;2.90;;;2.70;;
6037;SDS011;3047;42.600;23.470;2022-12-07T09:31:35;2.30;;;2.17;;
6037;SDS011;3047;42.600;23.470;2022-12-07T09:34:02;11.17;;;5.67;;
6037;SDS011;3047;42.600;23.470;2022-12-07T09:36:29;2.83;;;2.73;;
6037;SDS011;3047;42.600;23.470;2022-12-07T09:38:56;3.03;;;2.57;;
6037;SDS011;3047;42.600;23.470;2022-12-07T09:41:25;1.97;;;1.90;;
6037;SDS011;3047;42.600;23.470;2022-12-07T09:43:54;5.30;;;2.97;;
6037;SDS011;3047;42.600;23.470;2022-12-07T09:46:28;8.10;;;2.33;;
6037;SDS011;3047;42.600;23.470;2022-12-07T09:48:58;10.47;;;3.17;;
6037;SDS011;3047;42.600;23.470;2022-12-07T09:51:25;8.57;;;3.27;;
6037;SDS011;3047;42.600;23.470;2022-12-07T09:53:52;3.23;;;2.73;;
6037;SDS011;3047;42.600;23.470;2022-12-07T09:56:20;3.10;;;2.87;;
6037;SDS011;3047;42.600;23.470;2022-12-07T09:58:50;4.90;;;2.77;;
6037;SDS011;3047;42.600;23.470;2022-12-07T10:01:21;3.60;;;3.30;;
6037;SDS011;3047;42.600;23.470;2022-12-07T10:03:49;2.37;;;1.97;;
6037;SDS011;3047;42.600;23.470;2022-12-07T10:06:17;9.17;;;2.67;;
6037;SDS011;3047;42.600;23.470;2022-12-07T10:08:44;6.47;;;3.83;;
6037;SDS011;3047;42.600;23.470;2022-12-07T10:11:11;6.70;;;2.20;;
6037;SDS011;3047;42.600;23.470;2022-12-07T10:13:40;3.07;;;1.60;;
6037;SDS011;3047;42.600;23.470;2022-12-07T10:16:25;7.20;;;2.23;;
6037;SDS011;3047;42.600;23.470;2022-12-07T10:19:19;1.77;;;1.67;;
6037;SDS011;3047;42.600;23.470;2022-12-07T10:21:59;1.30;;;1.30;;
6037;SDS011;3047;42.600;23.470;2022-12-07T10:24:30;3.63;;;2.60;;
6037;SDS011;3047;42.600;23.470;2022-12-07T10:26:58;2.20;;;1.43;;
6037;SDS011;3047;42.600;23.470;2022-12-07T10:29:28;4.43;;;2.97;;
6037;SDS011;3047;42.600;23.470;2022-12-07T10:31:59;6.50;;;3.07;;
6037;SDS011;3047;42.600;23.470;2022-12-07T10:34:27;3.20;;;2.33;;
6037;SDS011;3047;42.600;23.470;2022-12-07T10:37:14;1.73;;;1.63;;
6037;SDS011;3047;42.600;23.470;2022-12-07T10:39:43;1.63;;;1.57;;
6037;SDS011;3047;42.600;23.470;2022-12-07T10:42:16;2.43;;;2.23;;
6037;SDS011;3047;42.600;23.470;2022-12-07T10:44:45;3.23;;;2.93;;
6037;SDS011;3047;42.600;23.470;2022-12-07T10:47:17;2.03;;;1.93;;
6037;SDS011;3047;42.600;23.470;2022-12-07T10:49:58;3.20;;;1.23;;
6037;SDS011;3047;42.600;23.470;2022-12-07T10:52:56;1.87;;;1.73;;
6037;SDS011;3047;42.600;23.470;2022-12-07T10:55:56;1.93;;;1.60;;
6037;SDS011;3047;42.600;23.470;2022-12-07T10:58:37;1.90;;;1.80;;
6037;SDS011;3047;42.600;23.470;2022-12-07T11:01:18;10.97;;;2.93;;
6037;SDS011;3047;42.600;23.470;2022-12-07T11:04:06;4.17;;;2.77;;
6037;SDS011;3047;42.600;23.470;2022-12-07T11:06:44;5.23;;;2.73;;
6037;SDS011;3047;42.600;23.470;2022-12-07T11:12:09;2.20;;;1.97;;
6037;SDS011;3047;42.600;23.470;2022-12-07T11:14:40;3.10;;;1.70;;
6037;SDS011;3047;42.600;23.470;2022-12-07T11:17:16;2.20;;;1.97;;
6037;SDS011;3047;42.600;23.470;2022-12-07T11:19:58;5.13;;;1.40;;
6037;SDS011;3047;42.600;23.470;2022-12-07T11:22:33;6.40;;;2.10;;
6037;SDS011;3047;42.600;23.470;2022-12-07T11:25:14;2.20;;;1.97;;
6037;SDS011;3047;42.600;23.470;2022-12-07T11:27:47;1.53;;;1.43;;
6037;SDS011;3047;42.600;23.470;2022-12-07T11:30:27;2.43;;;1.83;;
6037;SDS011;3047;42.600;23.470;2022-12-07T11:33:04;2.47;;;1.40;;
6037;SDS011;3047;42.600;23.470;2022-12-07T11:35:47;1.13;;;1.13;;
6037;SDS011;3047;42.600;23.470;2022-12-07T11:38:24;2.07;;;1.67;;
6037;SDS011;3047;42.600;23.470;2022-12-07T11:40:58;2.13;;;2.00;;
6037;SDS011;3047;42.600;23.470;2022-12-07T11:43:41;3.23;;;2.27;;
6037;SDS011;3047;42.600;23.470;2022-12-07T11:46:18;2.97;;;2.07;;
6037;SDS011;3047;42.600;23.470;2022-12-07T11:48:50;2.40;;;2.30;;
6037;SDS011;3047;42.600;23.470;2022-12-07T11:51:25;1.57;;;1.47;;
6037;SDS011;3047;42.600;23.470;2022-12-07T11:53:56;4.10;;;2.80;;
6037;SDS011;3047;42.600;23.470;2022-12-07T11:56:28;1.83;;;1.13;;
6037;SDS011;3047;42.600;23.470;2022-12-07T11:58:57;2.73;;;2.53;;
6037;SDS011;3047;42.600;23.470;2022-12-07T12:01:33;5.70;;;2.87;;
6037;SDS011;3047;42.600;23.470;2022-12-07T12:04:14;2.13;;;2.00;;
6037;SDS011;3047;42.600;23.470;2022-12-07T12:06:54;2.67;;;2.43;;
6037;SDS011;3047;42.600;23.470;2022-12-07T12:09:23;3.97;;;2.17;;
6037;SDS011;3047;42.600;23.470;2022-12-07T12:14:50;1.90;;;1.80;;
6037;SDS011;3047;42.600;23.470;2022-12-07T12:17:29;3.90;;;3.57;;
6037;SDS011;3047;42.600;23.470;2022-12-07T12:20:14;1.63;;;1.53;;
6037;SDS011;3047;42.600;23.470;2022-12-07T12:22:48;2.60;;;1.87;;
6037;SDS011;3047;42.600;23.470;2022-12-07T12:25:21;1.50;;;1.50;;
6037;SDS011;3047;42.600;23.470;2022-12-07T12:27:50;3.43;;;2.20;;
6037;SDS011;3047;42.600;23.470;2022-12-07T12:30:30;4.53;;;2.53;;
6037;SDS011;3047;42.600;23.470;2022-12-07T12:33:04;3.50;;;2.23;;
6037;SDS011;3047;42.600;23.470;2022-12-07T12:35:38;3.50;;;2.80;;
6037;SDS011;3047;42.600;23.470;2022-12-07T12:38:26;5.47;;;3.80;;
6037;SDS011;3047;42.600;23.470;2022-12-07T12:40:56;2.30;;;2.13;;
6037;SDS011;3047;42.600;23.470;2022-12-07T12:43:39;9.53;;;3.13;;
6037;SDS011;3047;42.600;23.470;2022-12-07T12:49:34;4.80;;;3.30;;
6037;SDS011;3047;42.600;23.470;2022-12-07T12:55:14;14.37;;;4.50;;
6037;SDS011;3047;42.600;23.470;2022-12-07T12:57:46;10.97;;;4.40;;
6037;SDS011;3047;42.600;23.470;2022-12-07T13:00:18;5.20;;;3.47;;
6037;SDS011;3047;42.600;23.470;2022-12-07T13:02:47;1.77;;;1.67;;
6037;SDS011;3047;42.600;23.470;2022-12-07T13:05:17;1.80;;;1.70;;
6037;SDS011;3047;42.600;23.470;2022-12-07T13:07:51;2.57;;;2.37;;
6037;SDS011;3047;42.600;23.470;2022-12-07T13:10:36;10.70;;;3.33;;
6037;SDS011;3047;42.600;23.470;2022-12-07T13:25:05;8.90;;;2.67;;
6037;SDS011;3047;42.600;23.470;2022-12-07T13:27:39;2.90;;;2.63;;
6037;SDS011;3047;42.600;23.470;2022-12-07T13:30:11;5.40;;;2.23;;
6037;SDS011;3047;42.600;23.470;2022-12-07T13:32:42;2.13;;;2.03;;
6037;SDS011;3047;42.600;23.470;2022-12-07T13:35:29;2.77;;;1.90;;
6037;SDS011;3047;42.600;23.470;2022-12-07T13:37:57;6.90;;;2.43;;
6037;SDS011;3047;42.600;23.470;2022-12-07T13:40:24;3.70;;;2.93;;
6037;SDS011;3047;42.600;23.470;2022-12-07T13:42:58;1.80;;;1.70;;
6037;SDS011;3047;42.600;23.470;2022-12-07T13:45:26;4.77;;;2.17;;
6037;SDS011;3047;42.600;23.470;2022-12-07T13:48:08;5.83;;;1.87;;
6037;SDS011;3047;42.600;23.470;2022-12-07T13:50:40;2.70;;;2.07;;
6037;SDS011;3047;42.600;23.470;2022-12-07T13:53:11;1.97;;;1.87;;
6037;SDS011;3047;42.600;23.470;2022-12-07T13:55:44;1.07;;;1.03;;
6037;SDS011;3047;42.600;23.470;2022-12-07T13:58:13;6.20;;;2.10;;
6037;SDS011;3047;42.600;23.470;2022-12-07T14:00:40;1.57;;;1.50;;
6037;SDS011;3047;42.600;23.470;2022-12-07T14:03:26;4.73;;;2.23;;
6037;SDS011;3047;42.600;23.470;2022-12-07T14:08:50;2.07;;;1.97;;
6037;SDS011;3047;42.600;23.470;2022-12-07T14:11:31;2.43;;;2.27;;
6037;SDS011;3047;42.600;23.470;2022-12-07T14:14:00;8.97;;;2.33;;
6037;SDS011;3047;42.600;23.470;2022-12-07T14:16:29;4.23;;;2.27;;
6037;SDS011;3047;42.600;23.470;2022-12-07T14:18:58;2.60;;;2.40;;
6037;SDS011;3047;42.600;23.470;2022-12-07T14:21:26;5.77;;;1.93;;
6037;SDS011;3047;42.600;23.470;2022-12-07T14:24:11;5.83;;;2.97;;
6037;SDS011;3047;42.600;23.470;2022-12-07T14:26:42;3.67;;;3.13;;
6037;SDS011;3047;42.600;23.470;2022-12-07T14:29:21;2.13;;;2.03;;
6037;SDS011;3047;42.600;23.470;2022-12-07T14:31:56;2.23;;;0.93;;
6037;SDS011;3047;42.600;23.470;2022-12-07T14:34:23;1.83;;;1.73;;
6037;SDS011;3047;42.600;23.470;2022-12-07T14:36:51;2.50;;;1.03;;
6037;SDS011;3047;42.600;23.470;2022-12-07T14:39:18;0.83;;;0.83;;
6037;SDS011;3047;42.600;23.470;2022-12-07T14:41:45;1.37;;;1.30;;
6037;SDS011;3047;42.600;23.470;2022-12-07T14:44:18;0.83;;;0.83;;
6037;SDS011;3047;42.600;23.470;2022-12-07T14:46:48;0.73;;;0.73;;
6037;SDS011;3047;42.600;23.470;2022-12-07T14:49:15;1.30;;;1.30;;
6037;SDS011;3047;42.600;23.470;2022-12-07T14:51:43;0.60;;;0.60;;
6037;SDS011;3047;42.600;23.470;2022-12-07T14:54:12;3.30;;;1.70;;
6037;SDS011;3047;42.600;23.470;2022-12-07T14:56:42;1.20;;;1.20;;
6037;SDS011;3047;42.600;23.470;2022-12-07T14:59:10;1.67;;;1.57;;
6037;SDS011;3047;42.600;23.470;2022-12-07T15:01:38;1.73;;;1.63;;
6037;SDS011;3047;42.600;23.470;2022-12-07T15:04:06;1.60;;;1.30;;
6037;SDS011;3047;42.600;23.470;2022-12-07T15:06:33;1.10;;;1.10;;
6037;SDS011;3047;42.600;23.470;2022-12-07T15:09:00;1.10;;;1.10;;
6037;SDS011;3047;42.600;23.470;2022-12-07T15:11:27;0.87;;;0.87;;
6037;SDS011;3047;42.600;23.470;2022-12-07T15:13:54;1.70;;;1.60;;
6037;SDS011;3047;42.600;23.470;2022-12-07T15:16:38;1.80;;;1.70;;
6037;SDS011;3047;42.600;23.470;2022-12-07T15:19:07;2.30;;;1.20;;
6037;SDS011;3047;42.600;23.470;2022-12-07T15:21:38;1.50;;;1.40;;
6037;SDS011;3047;42.600;23.470;2022-12-07T15:24:05;3.63;;;1.87;;
6037;SDS011;3047;42.600;23.470;2022-12-07T15:26:34;0.90;;;0.90;;
6037;SDS011;3047;42.600;23.470;2022-12-07T15:29:01;0.87;;;0.87;;
6037;SDS011;3047;42.600;23.470;2022-12-07T15:31:28;1.60;;;1.53;;
6037;SDS011;3047;42.600;23.470;2022-12-07T15:33:54;0.80;;;0.80;;
6037;SDS011;3047;42.600;23.470;2022-12-07T15:36:23;1.47;;;1.37;;
6037;SDS011;3047;42.600;23.470;2022-12-07T15:38:52;5.40;;;1.77;;
6037;SDS011;3047;42.600;23.470;2022-12-07T15:41:19;2.43;;;1.43;;
6037;SDS011;3047;42.600;23.470;2022-12-07T15:43:46;1.53;;;1.43;;
6037;SDS011;3047;42.600;23.470;2022-12-07T15:46:31;1.60;;;1.47;;
6037;SDS011;3047;42.600;23.470;2022-12-07T15:48:58;0.90;;;0.90;;
6037;SDS011;3047;42.600;23.470;2022-12-07T15:51:27;3.70;;;3.23;;